Old Lyme, CT (06371)

7:47 AM EDT on April 26, 2015 (GMT -0400)
Old Lyme EOC | | Change Station
CLOSE
Current Station
Personal Weather Station
Location: Old Lyme EOC, CT
Elevation: 56 ft
Nearby Weather Stations
Active Advisory: Winter Weather Statement Active Notice: Public Information Statement

Elev 56 ft 41.35 °N, 72.30 °W | Updated 3 seconds ago

Clear
Clear
39.0 °F
Feels Like 39 °F
N
1.0
Wind Variable Wind from ESE
Gusts 3.0 mph

Today
High -- | Low -- °F
--% Chance of Precip.
Yesterday
High -- | Low -- °F
Precip. -- in
5:53 AM 7:41 PM
First Quarter, 55% visible
Pressure 29.70 in
Visibility 10.0 miles
Clouds Clear
Windchill 39 °F
Dew Point 34 °F
Humidity 82%
Rainfall 0.00 in
Snow Depth Not available.
UV 1 out of 12
Pollen 10.10 out of 12
Air Quality Not available.
Flu Activity Widespread
METAR KSNC 261115Z AUTO 00000KT 10SM CLR 06/M01 A2970 RMK AO2

More Conditions Fewer Conditions

Pressure 29.70 in
Visibility 10.0 miles
Clouds Clear
Windchill 39 °F
Dew Point 34 °F
Humidity 82%
Rainfall 0.00 in
Snow Depth Not available.
UV 1 out of 12
Pollen 10.10 out of 12
Air Quality Not available.
Flu Activity Widespread
METAR KSNC 261115Z AUTO 00000KT 10SM CLR 06/M01 A2970 RMK AO2

More Conditions Fewer Conditions

The full scope of the disaster following a powerful 7.8-magnitude earthquake in Nepal may not come into view for days, but global charities are already sending emergency aid. Click to see how you can help.

10-Day Weather Forecast

Almanac

Astronomy

Apr. 26, 2015 Rise Set
Actual Time
Civil Twilight
Nautical Twilight
Astronomical Twilight
Moon
Length of Visible Light
Length of Day
Tomorrow will be .
, % of the Moon is Illuminated

Today's Extremes

State Highs State Lows

Community

WunderPhotos

Upload Photos

1,816,964 photos uploaded!

WunderBlogs® & News

Nearby

Air Quality

  Air Quality AQ Index Pollutant
Not available.

Snow Depth

Station Depth Elevation

Earthquake Activity

City Distance Mag. Time & Date
Minimum magnitude displayed is 2.5.

Coastal Water Temperatures

Place Temperature

Stations

Nearby Weather Stations

Station Location Temp. Windchill Dew Point Humidity Wind Precip. Elev Updated Type
                   
Winter Weather Statement
Statement as of 7:43 AM EDT on April 26, 2015

... Frost advisory is cancelled...

The National Weather Service in Upton has cancelled the frost
advisory.